createdAt,value
2023-03-06T00:00:21.578Z,76.41
2023-03-06T00:03:08.430Z,76.04
2023-03-06T00:05:35.419Z,75.40
2023-03-06T00:08:03.048Z,75.58
2023-03-06T00:10:31.537Z,75.81
2023-03-06T00:13:05.579Z,75.56
2023-03-06T00:15:32.394Z,75.66
2023-03-06T00:17:59.752Z,75.39
2023-03-06T00:20:26.797Z,75.08
2023-03-06T00:22:55.496Z,75.28
2023-03-06T00:25:23.388Z,75.26
2023-03-06T00:27:50.737Z,75.16
2023-03-06T00:30:19.290Z,75.01
2023-03-06T00:32:46.216Z,74.90
2023-03-06T00:35:13.939Z,75.15
2023-03-06T00:37:43.338Z,74.85
2023-03-06T00:40:12.823Z,75.08
2023-03-06T00:42:39.775Z,75.20
2023-03-06T00:45:07.462Z,75.42
2023-03-06T00:47:34.641Z,75.33
2023-03-06T00:50:01.495Z,75.44
2023-03-06T00:52:28.526Z,75.64
2023-03-06T00:54:55.590Z,75.44
2023-03-06T00:57:22.621Z,75.20
2023-03-06T00:59:49.675Z,75.23
2023-03-06T01:02:16.977Z,75.35
2023-03-06T01:04:44.093Z,75.37
2023-03-06T01:07:11.652Z,75.17
2023-03-06T01:09:38.671Z,75.03
2023-03-06T01:12:05.727Z,75.35
2023-03-06T01:14:34.036Z,75.30
2023-03-06T01:17:00.906Z,75.08
2023-03-06T01:19:27.740Z,75.17
2023-03-06T01:21:55.133Z,75.25
2023-03-06T01:24:23.622Z,75.45
2023-03-06T01:26:50.834Z,75.51
2023-03-06T01:29:17.782Z,75.44
2023-03-06T01:31:44.657Z,75.47
2023-03-06T01:34:11.581Z,75.49
2023-03-06T01:36:38.528Z,75.52
2023-03-06T01:39:05.494Z,75.71
2023-03-06T01:41:32.537Z,75.81
2023-03-06T01:43:59.595Z,75.81
2023-03-06T01:46:32.175Z,75.75
2023-03-06T01:49:14.568Z,75.69
2023-03-06T01:51:49.888Z,75.51
2023-03-06T01:54:39.890Z,75.47
2023-03-06T01:57:09.227Z,75.72
2023-03-06T01:59:37.865Z,75.81
2023-03-06T02:02:06.198Z,75.73
2023-03-06T02:04:33.585Z,75.66
2023-03-06T02:07:04.366Z,76.33
2023-03-06T02:09:34.203Z,75.76
2023-03-06T02:12:02.230Z,75.93
2023-03-06T02:14:29.622Z,75.78
2023-03-06T02:16:56.649Z,75.78
2023-03-06T02:19:26.492Z,76.03
2023-03-06T02:21:53.542Z,76.10
2023-03-06T02:24:30.025Z,76.21
2023-03-06T02:26:57.675Z,76.04
2023-03-06T02:29:25.956Z,75.97
2023-03-06T02:31:53.420Z,76.11
2023-03-06T02:34:20.392Z,76.04
2023-03-06T02:36:49.368Z,76.04
2023-03-06T02:39:19.799Z,75.95
2023-03-06T02:41:46.666Z,76.06
2023-03-06T02:44:14.106Z,75.87
2023-03-06T02:46:42.490Z,75.42
2023-03-06T02:49:10.023Z,75.22
2023-03-06T02:51:36.959Z,75.32
2023-03-06T02:54:03.952Z,74.82
2023-03-06T02:56:31.314Z,74.59
2023-03-06T02:58:58.365Z,74.18
2023-03-06T03:01:25.400Z,74.27
2023-03-06T03:03:52.449Z,73.74
2023-03-06T03:06:21.023Z,73.10
2023-03-06T03:08:48.992Z,72.59
2023-03-06T03:11:16.161Z,72.65
2023-03-06T03:13:44.057Z,72.80
2023-03-06T03:16:14.954Z,72.31
2023-03-06T03:18:43.956Z,72.22
2023-03-06T03:21:12.028Z,72.20
2023-03-06T03:23:39.240Z,72.24
2023-03-06T03:26:10.594Z,71.88
2023-03-06T03:28:39.361Z,71.88
2023-03-06T03:31:08.156Z,71.61
2023-03-06T03:33:35.464Z,71.46
2023-03-06T03:36:03.989Z,71.35
2023-03-06T03:38:31.592Z,70.77
2023-03-06T03:40:59.963Z,70.93
2023-03-06T03:43:27.057Z,70.65
2023-03-06T03:45:55.097Z,70.53
2023-03-06T03:48:23.135Z,70.50
2023-03-06T03:50:50.050Z,70.34
2023-03-06T03:53:17.516Z,70.53
2023-03-06T03:55:46.034Z,70.44
2023-03-06T03:58:12.813Z,70.53
2023-03-06T04:00:39.795Z,70.33
2023-03-06T04:03:10.241Z,70.15
2023-03-06T04:05:40.445Z,70.33
2023-03-06T04:08:08.158Z,70.64
2023-03-06T04:10:38.305Z,70.86
2023-03-06T04:13:07.537Z,71.03
2023-03-06T04:15:38.040Z,71.33
2023-03-06T04:18:05.124Z,71.10
2023-03-06T04:20:31.977Z,71.17
2023-03-06T04:22:59.633Z,71.50
2023-03-06T04:25:26.629Z,71.32
2023-03-06T04:27:53.769Z,71.16
2023-03-06T04:30:21.087Z,71.11
2023-03-06T04:32:48.064Z,71.29
2023-03-06T04:35:15.113Z,71.47
2023-03-06T04:37:48.771Z,71.70
2023-03-06T04:40:19.618Z,71.61
2023-03-06T04:42:46.943Z,71.66
2023-03-06T04:45:13.896Z,71.51
2023-03-06T04:47:41.093Z,71.38
2023-03-06T04:50:08.514Z,71.69
2023-03-06T04:52:35.276Z,71.79
2023-03-06T04:55:07.963Z,71.83
2023-03-06T04:57:39.024Z,72.20
2023-03-06T05:00:09.019Z,71.93
2023-03-06T05:02:36.140Z,71.69
2023-03-06T05:05:03.485Z,72.00
2023-03-06T05:07:30.537Z,71.98
2023-03-06T05:09:57.357Z,71.60
2023-03-06T05:12:24.185Z,71.45
2023-03-06T05:14:51.056Z,71.73
2023-03-06T05:17:18.001Z,71.81
2023-03-06T05:19:44.952Z,72.12
2023-03-06T05:22:11.830Z,72.18
2023-03-06T05:24:38.751Z,72.50
2023-03-06T05:27:05.709Z,72.45
2023-03-06T05:29:32.548Z,72.54
2023-03-06T05:31:59.558Z,72.71
2023-03-06T05:34:26.658Z,72.59
2023-03-06T05:36:53.813Z,72.91
2023-03-06T05:39:20.986Z,73.05
2023-03-06T05:41:48.128Z,72.99
2023-03-06T05:44:14.985Z,73.02
2023-03-06T05:46:41.821Z,73.15
2023-03-06T05:49:08.978Z,73.09
2023-03-06T05:51:35.907Z,73.57
2023-03-06T05:54:02.777Z,73.69
2023-03-06T05:56:29.726Z,73.61
2023-03-06T05:58:56.584Z,73.44
2023-03-06T06:01:24.872Z,73.47
2023-03-06T06:03:51.932Z,73.89
2023-03-06T06:06:18.775Z,73.70
2023-03-06T06:08:45.707Z,73.76
2023-03-06T06:11:13.175Z,73.52
2023-03-06T06:13:40.163Z,73.61
2023-03-06T06:16:11.396Z,73.57
2023-03-06T06:18:41.045Z,73.38
2023-03-06T06:21:09.365Z,73.25
2023-03-06T06:23:36.721Z,72.92
2023-03-06T06:26:04.979Z,73.00
2023-03-06T06:28:32.978Z,73.07
2023-03-06T06:31:00.257Z,72.52
2023-03-06T06:33:27.390Z,72.42
2023-03-06T06:35:54.371Z,72.11
2023-03-06T06:38:21.497Z,72.16
2023-03-06T06:41:19.030Z,71.76
2023-03-06T06:43:35.355Z,70.96
2023-03-06T06:46:24.554Z,70.65
2023-03-06T06:48:49.625Z,70.46
2023-03-06T06:51:16.691Z,70.67
2023-03-06T06:53:44.344Z,70.68
2023-03-06T06:56:11.290Z,70.23
2023-03-06T06:58:38.144Z,70.06
2023-03-06T07:01:06.649Z,69.52
2023-03-06T07:03:33.762Z,69.83
2023-03-06T07:06:01.144Z,68.93
2023-03-06T07:08:28.499Z,68.77
2023-03-06T07:10:55.461Z,68.08
2023-03-06T07:13:22.508Z,65.73
2023-03-06T07:15:49.687Z,66.33
2023-03-06T07:18:16.817Z,65.47
2023-03-06T07:20:43.808Z,65.00
2023-03-06T07:23:11.641Z,65.85
2023-03-06T07:25:39.002Z,65.94
2023-03-06T07:28:06.012Z,66.55
2023-03-06T07:30:32.921Z,63.21
2023-03-06T07:33:00.220Z,63.79
2023-03-06T07:35:27.426Z,64.74
2023-03-06T07:37:54.587Z,64.19
2023-03-06T07:40:22.670Z,64.54
2023-03-06T07:42:49.712Z,65.09
2023-03-06T07:45:19.184Z,65.32
2023-03-06T07:47:45.959Z,65.08
2023-03-06T07:50:13.344Z,64.60
2023-03-06T07:52:40.382Z,63.94
2023-03-06T07:55:07.554Z,64.08
2023-03-06T07:57:35.196Z,63.76
2023-03-06T08:00:03.378Z,64.20
2023-03-06T08:02:40.694Z,62.44
2023-03-06T08:05:08.758Z,63.52
2023-03-06T08:07:36.021Z,63.53
2023-03-06T08:10:03.464Z,63.98
2023-03-06T08:12:30.410Z,62.00
2023-03-06T08:14:57.359Z,59.67
2023-03-06T08:17:24.207Z,61.12
2023-03-06T08:19:51.156Z,59.93
2023-03-06T08:22:18.108Z,60.90
2023-03-06T08:24:45.059Z,60.17
2023-03-06T08:27:12.009Z,61.08
2023-03-06T08:29:39.061Z,61.55
2023-03-06T08:32:06.158Z,59.75
2023-03-06T08:34:33.245Z,60.20
2023-03-06T08:37:00.324Z,59.16
2023-03-06T08:39:27.377Z,59.44
2023-03-06T08:41:54.432Z,59.78
2023-03-06T08:44:21.488Z,61.07
2023-03-06T08:46:48.540Z,61.51
2023-03-06T08:49:15.381Z,59.88
2023-03-06T08:51:42.651Z,57.72
2023-03-06T08:54:11.640Z,55.17
2023-03-06T08:56:38.910Z,55.68
2023-03-06T08:59:08.916Z,49.12
2023-03-06T09:01:37.438Z,47.96
2023-03-06T09:04:05.995Z,50.03
2023-03-06T09:06:34.592Z,49.73
2023-03-06T09:09:04.805Z,50.73
2023-03-06T09:11:32.063Z,51.67
2023-03-06T09:13:59.540Z,51.39
2023-03-06T09:16:26.768Z,51.92
2023-03-06T09:18:53.923Z,52.26
2023-03-06T09:21:21.333Z,49.72
2023-03-06T09:23:48.362Z,52.35
2023-03-06T09:26:15.406Z,51.76
2023-03-06T09:28:42.466Z,46.57
2023-03-06T09:31:10.821Z,47.68
2023-03-06T09:33:38.308Z,47.15
2023-03-06T09:36:06.097Z,49.47
2023-03-06T09:38:33.129Z,50.17
2023-03-06T09:43:39.616Z,49.46
2023-03-06T09:46:26.974Z,47.49
2023-03-06T09:48:54.602Z,48.62
2023-03-06T09:51:27.176Z,48.01
2023-03-06T09:53:54.128Z,46.47
2023-03-06T09:56:23.151Z,47.72
2023-03-06T09:58:53.356Z,49.88
2023-03-06T10:01:27.122Z,51.11
2023-03-06T10:03:57.693Z,50.04
2023-03-06T10:06:24.745Z,49.15
2023-03-06T10:08:54.486Z,47.56
2023-03-06T10:11:25.681Z,46.24
2023-03-06T10:14:06.983Z,48.32
2023-03-06T10:16:34.035Z,49.79
2023-03-06T10:19:02.858Z,51.03
2023-03-06T10:21:38.587Z,48.87
2023-03-06T10:24:13.148Z,48.96
2023-03-06T10:26:44.554Z,49.10
2023-03-06T10:29:11.774Z,50.35
2023-03-06T10:31:40.819Z,51.28
2023-03-06T10:34:18.939Z,50.39
2023-03-06T10:36:45.709Z,51.96
2023-03-06T10:39:16.987Z,51.78
2023-03-06T10:41:45.303Z,51.02
2023-03-06T10:44:12.242Z,51.82
2023-03-06T10:46:39.282Z,51.13
2023-03-06T10:49:21.814Z,51.48
2023-03-06T10:52:07.603Z,50.16
2023-03-06T10:54:38.938Z,48.14
2023-03-06T10:57:20.219Z,49.24
2023-03-06T10:59:54.751Z,50.83
2023-03-06T11:02:21.704Z,51.72
2023-03-06T11:04:51.477Z,50.48
2023-03-06T11:07:20.504Z,50.49
2023-03-06T11:09:56.533Z,48.31
2023-03-06T11:12:25.976Z,49.24
2023-03-06T11:15:12.266Z,46.55
2023-03-06T11:17:48.599Z,48.64
2023-03-06T11:20:17.944Z,47.86
2023-03-06T11:23:04.918Z,47.33
2023-03-06T11:25:33.649Z,49.19
2023-03-06T11:28:07.855Z,50.51
2023-03-06T11:30:39.339Z,49.23
2023-03-06T11:33:29.277Z,47.66
2023-03-06T11:36:02.271Z,44.84
2023-03-06T11:38:40.677Z,45.22
2023-03-06T11:41:12.948Z,46.25
2023-03-06T11:44:00.469Z,45.24
2023-03-06T11:46:30.393Z,44.71
2023-03-06T11:49:12.686Z,46.70
2023-03-06T11:51:47.683Z,47.01
2023-03-06T11:54:14.578Z,46.60
2023-03-06T11:56:41.396Z,46.88
2023-03-06T11:59:20.551Z,47.52
2023-03-06T12:01:54.069Z,47.59
2023-03-06T12:04:30.018Z,47.38
2023-03-06T12:07:05.552Z,47.63
2023-03-06T12:09:46.325Z,46.91
2023-03-06T12:12:22.496Z,47.12
2023-03-06T12:14:49.344Z,45.59
2023-03-06T12:17:25.596Z,46.55
2023-03-06T12:20:11.168Z,46.02
2023-03-06T12:22:38.231Z,46.71
2023-03-06T12:25:09.062Z,47.64
2023-03-06T12:27:39.087Z,47.98
2023-03-06T12:30:20.389Z,48.09
2023-03-06T12:32:50.198Z,48.11
2023-03-06T12:35:31.477Z,47.59
2023-03-06T12:38:10.787Z,47.48
2023-03-06T12:40:47.056Z,47.40
2023-03-06T12:43:33.137Z,48.49
2023-03-06T12:46:12.414Z,48.81
2023-03-06T12:48:41.264Z,48.64
2023-03-06T12:51:10.883Z,48.15
2023-03-06T12:53:39.978Z,48.78
2023-03-06T12:56:07.031Z,49.05
2023-03-06T12:58:35.021Z,49.56
2023-03-06T13:01:23.700Z,48.98
2023-03-06T13:03:53.571Z,48.90
2023-03-06T13:06:36.558Z,48.92
2023-03-06T13:09:19.593Z,49.61
2023-03-06T13:11:46.408Z,48.54
2023-03-06T13:14:24.253Z,48.69
2023-03-06T13:16:51.525Z,48.67
2023-03-06T13:19:27.270Z,48.95
2023-03-06T13:21:54.112Z,48.32
2023-03-06T13:24:21.776Z,48.52
2023-03-06T13:26:50.675Z,49.21
2023-03-06T13:29:35.957Z,49.05
2023-03-06T13:32:02.833Z,47.79
2023-03-06T13:34:37.437Z,48.66
2023-03-06T13:37:13.295Z,46.91
2023-03-06T13:40:03.242Z,47.53
2023-03-06T13:42:33.788Z,46.53
2023-03-06T13:45:19.145Z,46.84
2023-03-06T13:48:19.569Z,46.67
2023-03-06T13:50:43.812Z,47.15
2023-03-06T13:53:10.845Z,45.88
2023-03-06T13:55:41.747Z,46.04
2023-03-06T13:58:18.212Z,46.77
2023-03-06T14:00:52.629Z,46.73
2023-03-06T14:03:19.787Z,46.66
2023-03-06T14:05:47.953Z,47.95
2023-03-06T14:08:31.816Z,47.32
2023-03-06T14:11:13.177Z,47.90
2023-03-06T14:13:47.858Z,48.74
2023-03-06T14:16:22.788Z,48.49
2023-03-06T14:18:50.902Z,48.91
2023-03-06T14:21:30.396Z,48.06
2023-03-06T14:24:00.429Z,47.97
2023-03-06T14:26:31.417Z,48.45
2023-03-06T14:28:59.413Z,48.40
2023-03-06T14:31:34.244Z,48.67
2023-03-06T14:34:06.293Z,48.59
2023-03-06T14:36:42.863Z,49.78
2023-03-06T14:39:28.848Z,49.60
2023-03-06T14:42:14.305Z,49.77
2023-03-06T14:44:41.285Z,49.54
2023-03-06T14:47:17.641Z,49.18
2023-03-06T14:49:44.496Z,48.98
2023-03-06T14:52:17.063Z,49.10
2023-03-06T14:54:44.730Z,46.44
2023-03-06T14:57:17.994Z,46.83
2023-03-06T14:59:47.947Z,48.04
2023-03-06T15:02:20.936Z,47.87
2023-03-06T15:05:17.050Z,49.73
2023-03-06T15:07:44.717Z,48.80
2023-03-06T15:10:29.299Z,49.56
2023-03-06T15:13:06.759Z,49.92
2023-03-06T15:15:33.617Z,49.81
2023-03-06T15:18:00.604Z,49.90
2023-03-06T15:20:57.084Z,50.32
2023-03-06T15:23:25.057Z,50.54
2023-03-06T15:25:56.340Z,50.47
2023-03-06T15:28:39.072Z,50.49
2023-03-06T15:31:18.640Z,50.67
2023-03-06T15:34:04.308Z,50.81
2023-03-06T15:36:32.632Z,50.68
2023-03-06T15:39:00.487Z,50.80
2023-03-06T15:41:33.513Z,50.94
2023-03-06T15:44:01.888Z,51.20
2023-03-06T15:46:29.396Z,51.52
2023-03-06T15:48:58.324Z,51.55
2023-03-06T15:51:25.238Z,51.48
2023-03-06T15:53:55.014Z,51.77
2023-03-06T15:56:42.507Z,51.98
2023-03-06T15:59:19.795Z,51.95
2023-03-06T16:01:46.951Z,51.95
2023-03-06T16:04:16.539Z,52.10
2023-03-06T16:06:46.690Z,52.24
2023-03-06T16:09:13.746Z,52.37
2023-03-06T16:11:44.342Z,52.52
2023-03-06T16:14:18.288Z,52.56
2023-03-06T16:16:45.754Z,52.82
2023-03-06T16:19:25.939Z,53.00
2023-03-06T16:21:54.501Z,53.01
2023-03-06T16:24:21.534Z,52.96
2023-03-06T16:26:52.480Z,53.28
2023-03-06T16:29:21.167Z,53.47
2023-03-06T16:31:48.527Z,53.24
2023-03-06T16:34:15.804Z,53.60
2023-03-06T16:36:42.641Z,53.76
2023-03-06T16:39:16.651Z,53.72
2023-03-06T16:41:45.437Z,53.69
2023-03-06T16:44:12.905Z,53.74
2023-03-06T16:46:42.204Z,54.06
2023-03-06T16:49:19.919Z,54.10
2023-03-06T16:51:47.477Z,54.23
2023-03-06T16:54:14.439Z,54.61
2023-03-06T16:56:41.777Z,54.87
2023-03-06T16:59:08.936Z,55.31
2023-03-06T17:01:36.371Z,55.63
2023-03-06T17:04:03.560Z,55.71
2023-03-06T17:06:30.824Z,55.82
2023-03-06T17:08:59.298Z,56.17
2023-03-06T17:11:26.966Z,56.23
2023-03-06T17:13:54.852Z,56.56
2023-03-06T17:16:21.854Z,56.87
2023-03-06T17:18:49.201Z,56.68
2023-03-06T17:21:16.053Z,56.96
2023-03-06T17:23:43.974Z,56.68
2023-03-06T17:26:15.420Z,57.01
2023-03-06T17:28:42.330Z,56.95
2023-03-06T17:31:16.940Z,57.51
2023-03-06T17:33:43.846Z,57.38
2023-03-06T17:36:11.120Z,57.56
2023-03-06T17:38:37.997Z,57.32
2023-03-06T17:41:05.620Z,57.39
2023-03-06T17:43:33.205Z,57.06
2023-03-06T17:46:07.575Z,57.10
2023-03-06T17:48:34.877Z,57.46
2023-03-06T17:51:01.819Z,57.21
2023-03-06T17:53:28.779Z,57.42
2023-03-06T17:55:57.662Z,57.43
2023-03-06T17:58:25.059Z,57.46
2023-03-06T18:00:52.073Z,57.70
2023-03-06T18:03:19.227Z,57.98
2023-03-06T18:05:46.312Z,57.89
2023-03-06T18:08:13.545Z,57.86
2023-03-06T18:10:41.105Z,57.83
2023-03-06T18:13:08.781Z,57.96
2023-03-06T18:15:39.813Z,58.11
2023-03-06T18:18:07.685Z,57.99
2023-03-06T18:20:39.548Z,57.95
2023-03-06T18:23:06.404Z,57.76
2023-03-06T18:25:33.560Z,57.82
2023-03-06T18:28:01.121Z,57.76
2023-03-06T18:30:28.078Z,57.94
2023-03-06T18:32:55.024Z,57.78
2023-03-06T18:35:22.021Z,57.91
2023-03-06T18:37:49.028Z,57.85
2023-03-06T18:40:16.180Z,57.77
2023-03-06T18:42:43.135Z,57.87
2023-03-06T18:45:10.681Z,57.97
2023-03-06T18:47:37.583Z,58.31
2023-03-06T18:50:04.812Z,58.22
2023-03-06T18:52:33.287Z,58.35
2023-03-06T18:55:00.549Z,58.53
2023-03-06T18:57:29.948Z,58.63
2023-03-06T18:59:57.426Z,58.69
2023-03-06T19:02:24.371Z,58.83
2023-03-06T19:04:52.548Z,58.68
2023-03-06T19:07:19.397Z,58.89
2023-03-06T19:09:47.883Z,58.83
2023-03-06T19:12:15.243Z,58.85
2023-03-06T19:14:42.146Z,59.12
2023-03-06T19:17:09.051Z,58.90
2023-03-06T19:19:36.035Z,58.88
2023-03-06T19:22:03.103Z,59.29
2023-03-06T19:24:30.121Z,60.01
2023-03-06T19:26:57.069Z,59.99
2023-03-06T19:29:24.012Z,60.13
2023-03-06T19:31:51.597Z,60.67
2023-03-06T19:34:18.651Z,60.18
2023-03-06T19:36:45.574Z,59.98
2023-03-06T19:39:12.480Z,60.42
2023-03-06T19:41:39.347Z,60.39
2023-03-06T19:44:06.335Z,60.50
2023-03-06T19:46:34.008Z,60.53
2023-03-06T19:49:02.290Z,60.79
2023-03-06T19:51:30.139Z,61.01
2023-03-06T19:53:56.979Z,61.10
2023-03-06T19:56:29.632Z,61.19
2023-03-06T19:58:56.606Z,61.29
2023-03-06T20:01:24.462Z,61.37
2023-03-06T20:03:57.985Z,61.57
2023-03-06T20:06:26.535Z,61.64
2023-03-06T20:08:53.598Z,61.96
2023-03-06T20:11:24.761Z,62.21
2023-03-06T20:13:51.677Z,61.99
2023-03-06T20:16:18.492Z,62.60
2023-03-06T20:18:45.392Z,62.53
2023-03-06T20:21:12.444Z,62.48
2023-03-06T20:23:39.634Z,62.47
2023-03-06T20:26:09.091Z,62.64
2023-03-06T20:28:36.248Z,62.76
2023-03-06T20:31:07.274Z,63.25
2023-03-06T20:33:34.323Z,63.47
2023-03-06T20:36:01.187Z,63.19
2023-03-06T20:38:28.136Z,62.66
2023-03-06T20:40:57.214Z,62.98
2023-03-06T20:43:24.251Z,62.97
2023-03-06T20:45:55.688Z,62.99
2023-03-06T20:48:22.515Z,62.71
2023-03-06T20:51:10.408Z,62.63
2023-03-06T20:53:37.315Z,62.66
2023-03-06T20:56:04.503Z,62.48
2023-03-06T20:58:31.996Z,62.88
2023-03-06T21:01:00.804Z,63.11
2023-03-06T21:03:29.340Z,63.52
2023-03-06T21:05:56.556Z,63.47
2023-03-06T21:08:23.693Z,63.75
2023-03-06T21:10:50.650Z,63.35
2023-03-06T21:13:17.843Z,63.13
2023-03-06T21:15:46.957Z,63.48
2023-03-06T21:18:13.822Z,63.49
2023-03-06T21:20:40.984Z,64.09
2023-03-06T21:23:08.500Z,63.27
2023-03-06T21:25:35.274Z,63.37
2023-03-06T21:28:02.280Z,64.32
2023-03-06T21:30:29.139Z,63.90
2023-03-06T21:32:56.064Z,63.84
2023-03-06T21:35:23.069Z,63.70
2023-03-06T21:37:49.994Z,64.01
2023-03-06T21:40:16.874Z,63.79
2023-03-06T21:42:43.696Z,63.72
2023-03-06T21:45:11.458Z,64.08
2023-03-06T21:47:40.222Z,64.03
2023-03-06T21:50:08.872Z,64.37
2023-03-06T21:52:36.217Z,64.11
2023-03-06T21:55:03.257Z,65.17
2023-03-06T21:57:30.333Z,64.48
2023-03-06T21:59:57.271Z,64.14
2023-03-06T22:02:24.176Z,63.80
2023-03-06T22:04:52.075Z,62.99
2023-03-06T22:07:19.552Z,62.57
2023-03-06T22:09:46.463Z,62.43
2023-03-06T22:12:13.342Z,62.32
2023-03-06T22:14:42.407Z,62.27
2023-03-06T22:17:09.253Z,62.38
2023-03-06T22:19:36.112Z,61.91
2023-03-06T22:22:03.312Z,62.12
2023-03-06T22:24:33.361Z,61.91
2023-03-06T22:27:00.216Z,61.80
2023-03-06T22:29:26.998Z,61.39
2023-03-06T22:31:53.897Z,61.52
2023-03-06T22:34:20.654Z,61.57
2023-03-06T22:36:47.706Z,61.37
2023-03-06T22:39:14.850Z,61.61
2023-03-06T22:41:41.685Z,61.98
2023-03-06T22:44:13.868Z,61.52
2023-03-06T22:46:41.211Z,60.88
2023-03-06T22:49:09.087Z,60.65
2023-03-06T22:51:37.263Z,60.70
2023-03-06T22:54:40.856Z,60.20
2023-03-06T22:57:07.700Z,60.69
2023-03-06T22:59:34.610Z,61.16
2023-03-06T23:02:01.600Z,61.12
2023-03-06T23:04:28.479Z,60.79
2023-03-06T23:06:55.333Z,60.89
2023-03-06T23:09:22.392Z,61.41
2023-03-06T23:12:08.633Z,64.94
2023-03-06T23:14:53.902Z,65.64
2023-03-06T23:17:39.493Z,64.62
2023-03-06T23:20:25.033Z,64.05
2023-03-06T23:23:10.581Z,64.28
2023-03-06T23:25:43.660Z,64.77
2023-03-06T23:28:11.194Z,65.21
2023-03-06T23:30:41.275Z,66.37
2023-03-06T23:33:08.194Z,66.68
2023-03-06T23:35:36.299Z,66.87
2023-03-06T23:38:03.166Z,67.45
2023-03-06T23:40:30.782Z,67.85
2023-03-06T23:42:57.585Z,68.16
2023-03-06T23:45:24.454Z,68.44
2023-03-06T23:47:51.397Z,68.58
2023-03-06T23:50:18.420Z,68.76
2023-03-06T23:52:45.186Z,68.90
2023-03-06T23:55:12.036Z,69.68
2023-03-06T23:57:38.881Z,70.15
